Time;durP1;ratioP1;P1;durP2;ratioP2;P2;SDS_P1;SDS_P2;PMS_P1;PMS_P2;Temp;Humidity;BMP_temperature;BMP_pressure;BME280_temperature;BME280_humidity;BME280_pressure;Samples;Min_cycle;Max_cycle;Signal;HPM_P1;HPM_P2
2023/02/15 00:01:16;;;;;;;1.08;1.08;;;;;;;3.06;75.83;102050.38;5049155;28;20037;-76
2023/02/15 00:03:41;;;;;;;0.50;0.50;;;;;;;2.99;75.88;102045.75;5049726;28;20060;-74
2023/02/15 00:06:07;;;;;;;0.60;0.60;;;;;;;2.99;76.05;102046.63;5048422;28;20033;-76
2023/02/15 00:08:32;;;;;;;0.60;0.60;;;;;;;3.03;75.72;102032.28;5048386;28;20029;-76
2023/02/15 00:11:12;;;;;;;0.60;0.60;;;;;;;2.95;75.92;102019.06;5046714;28;20032;-77
2023/02/15 00:13:41;;;;;;;0.50;0.50;;;;;;;3.05;75.78;102031.53;5063456;28;20029;-76
2023/02/15 00:16:11;;;;;;;0.60;0.60;;;;;;;3.08;75.71;102028.25;5048112;28;20044;-74
2023/02/15 00:18:40;;;;;;;0.55;0.55;;;;;;;3.02;75.57;102025.38;5046773;28;20029;-76
2023/02/15 00:21:08;;;;;;;4.25;3.17;;;;;;;2.99;75.75;102028.66;5046692;28;20025;-75
2023/02/15 00:23:34;;;;;;;0.57;0.57;;;;;;;2.97;75.89;102022.59;5047752;28;20029;-74
2023/02/15 00:26:07;;;;;;;0.60;0.60;;;;;;;3.00;75.77;102017.63;5047647;28;20045;-77
2023/02/15 00:28:33;;;;;;;0.52;0.52;;;;;;;2.96;75.73;102010.56;5047812;28;20119;-76
2023/02/15 00:31:04;;;;;;;0.50;0.50;;;;;;;3.04;75.75;102016.06;5047366;28;20053;-77
2023/02/15 00:33:29;;;;;;;0.98;0.98;;;;;;;2.97;75.70;102018.31;5047862;28;20017;-77
2023/02/15 00:35:59;;;;;;;0.50;0.50;;;;;;;2.93;75.77;102008.72;5047795;28;20099;-77
2023/02/15 00:38:27;;;;;;;1.30;1.25;;;;;;;2.92;75.90;102006.97;5047955;28;20084;-75
2023/02/15 00:41:03;;;;;;;1.17;1.13;;;;;;;2.91;76.01;102004.31;5047601;28;20045;-76
2023/02/15 00:43:31;;;;;;;1.33;1.33;;;;;;;2.95;75.97;102016.50;5047277;28;20052;-76
2023/02/15 00:45:56;;;;;;;0.50;0.50;;;;;;;2.97;75.54;101996.94;5046205;28;20131;-75
2023/02/15 00:48:22;;;;;;;0.60;0.60;;;;;;;3.00;75.78;102017.63;5063035;28;20021;-75
2023/02/15 00:50:53;;;;;;;0.80;0.80;;;;;;;3.00;75.84;102004.78;5047603;28;20048;-76
2023/02/15 00:53:20;;;;;;;0.82;0.82;;;;;;;2.95;76.00;101998.53;5047261;28;20028;-75
2023/02/15 00:55:45;;;;;;;1.05;1.05;;;;;;;3.01;75.84;102010.78;5062613;28;20048;-75
2023/02/15 00:58:11;;;;;;;0.60;0.60;;;;;;;2.93;75.83;101995.91;5047297;28;20025;-75
2023/02/15 01:00:38;;;;;;;1.88;1.77;;;;;;;2.93;75.86;101990.78;5062606;28;20473;-76
2023/02/15 01:03:04;;;;;;;0.50;0.50;;;;;;;2.99;75.84;102008.13;5046712;28;20040;-76
2023/02/15 01:05:30;;;;;;;0.70;0.70;;;;;;;2.95;75.83;101991.72;5045797;28;20029;-77
2023/02/15 01:07:56;;;;;;;0.90;0.90;;;;;;;2.93;75.92;101983.06;5046973;28;20085;-76
2023/02/15 01:10:22;;;;;;;0.50;0.50;;;;;;;2.97;75.82;101979.84;5046585;28;20060;-76
2023/02/15 01:12:50;;;;;;;1.25;1.25;;;;;;;2.99;75.94;101973.91;5062446;28;20021;-77
2023/02/15 01:15:16;;;;;;;0.57;0.57;;;;;;;2.97;75.63;101977.28;5046946;28;20029;-76
2023/02/15 01:17:42;;;;;;;0.60;0.60;;;;;;;2.93;75.65;101975.38;5062154;28;20025;-75
2023/02/15 01:20:08;;;;;;;0.60;0.60;;;;;;;2.97;75.87;101973.84;5045643;28;20101;-75
2023/02/15 01:22:33;;;;;;;0.50;0.50;;;;;;;2.97;75.73;101974.72;5046617;28;20088;-77
2023/02/15 01:24:58;;;;;;;0.73;0.73;;;;;;;2.93;75.78;101966.78;5046663;28;20061;-75
2023/02/15 01:27:24;;;;;;;1.80;1.70;;;;;;;3.00;75.84;101973.09;5061854;28;20043;-75
2023/02/15 01:29:50;;;;;;;0.60;0.60;;;;;;;2.98;75.54;101967.91;5046285;28;20108;-76
2023/02/15 01:32:15;;;;;;;1.35;1.35;;;;;;;2.98;75.67;101965.34;5046433;28;20036;-75
2023/02/15 01:34:40;;;;;;;0.60;0.60;;;;;;;2.95;75.61;101958.38;5061682;28;20396;-76
2023/02/15 01:37:06;;;;;;;0.60;0.60;;;;;;;2.94;75.48;101954.03;5046533;28;20031;-76
2023/02/15 01:39:31;;;;;;;0.70;0.70;;;;;;;2.92;75.27;101955.66;5046224;28;20068;-76
2023/02/15 01:41:57;;;;;;;0.93;0.93;;;;;;;2.93;75.44;101942.03;5044767;28;20036;-76
2023/02/15 01:44:47;;;;;;;0.63;0.63;;;;;;;2.93;75.63;101943.69;5046169;28;20033;-75
2023/02/15 01:47:18;;;;;;;0.60;0.60;;;;;;;2.93;75.67;101949.72;5061509;28;20025;-75
2023/02/15 01:49:46;;;;;;;0.55;0.55;;;;;;;2.89;75.69;101939.25;5046275;28;20081;-75
2023/02/15 01:52:15;;;;;;;0.75;0.75;;;;;;;2.91;75.73;101935.03;5046160;28;20017;-75
2023/02/15 01:54:44;;;;;;;0.50;0.50;;;;;;;2.94;75.55;101938.63;5045837;28;20051;-75
2023/02/15 01:57:15;;;;;;;0.50;0.50;;;;;;;2.99;75.70;101935.44;5045776;28;20024;-76
2023/02/15 01:59:44;;;;;;;1.00;1.00;;;;;;;2.97;75.75;101928.53;5044817;28;20029;-76
2023/02/15 02:02:13;;;;;;;0.50;0.50;;;;;;;2.97;75.43;101920.81;5045956;28;20026;-75
2023/02/15 02:04:45;;;;;;;0.60;0.60;;;;;;;2.99;75.61;101930.31;5045914;28;20117;-76
2023/02/15 02:07:12;;;;;;;;;;;;;;;2.97;75.73;101931.09;5046483;28;20021;-77
2023/02/15 02:09:37;;;;;;;1.15;1.15;;;;;;;2.94;75.54;101919.81;5045985;28;19913;-76
2023/02/15 02:12:03;;;;;;;0.60;0.60;;;;;;;2.90;75.58;101913.66;5045569;28;20017;-76
2023/02/15 02:14:29;;;;;;;0.60;0.60;;;;;;;2.88;75.72;101917.81;5060169;28;20386;-76
2023/02/15 02:17:05;;;;;;;0.60;0.60;;;;;;;2.88;75.68;101917.81;5045533;28;20028;-76
2023/02/15 02:19:42;;;;;;;2.55;2.42;;;;;;;2.91;75.53;101917.09;5061176;28;20025;-76
2023/02/15 02:22:32;;;;;;;0.50;0.50;;;;;;;2.91;75.82;101901.69;5045703;28;20033;-75
2023/02/15 02:25:13;;;;;;;0.60;0.60;;;;;;;2.90;75.75;101911.09;5045654;28;20109;-74
2023/02/15 02:27:47;;;;;;;0.50;0.50;;;;;;;2.88;75.66;101902.44;5060809;28;20179;-76
2023/02/15 02:30:15;;;;;;;0.50;0.50;;;;;;;2.84;75.55;101906.53;5045614;28;20036;-76
2023/02/15 02:32:50;;;;;;;0.60;0.60;;;;;;;2.88;75.63;101892.16;5060968;28;20043;-76
2023/02/15 02:35:30;;;;;;;0.50;0.50;;;;;;;2.92;75.72;101901.78;5045445;28;20025;-76
2023/02/15 02:38:15;;;;;;;0.50;0.50;;;;;;;2.89;75.46;101887.94;5045364;28;20025;-76
2023/02/15 02:41:16;;;;;;;0.65;0.65;;;;;;;2.95;75.87;101888.22;5043563;28;20056;-76
2023/02/15 02:44:30;;;;;;;0.60;0.60;;;;;;;2.94;75.75;101886.47;5045109;28;20021;-77
2023/02/15 02:47:13;;;;;;;0.55;0.55;;;;;;;2.93;75.31;101887.25;5014517;28;20038;-77
2023/02/15 02:49:42;;;;;;;0.60;0.60;;;;;;;2.91;75.61;101876.91;5060622;28;20048;-77
2023/02/15 02:52:38;;;;;;;0.45;0.45;;;;;;;2.89;75.62;101878.53;5060552;28;20048;-76
2023/02/15 02:55:13;;;;;;;0.60;0.60;;;;;;;2.91;75.64;101876.91;5045118;28;20031;-76
2023/02/15 02:57:45;;;;;;;0.65;0.65;;;;;;;2.91;75.60;101861.53;5045230;28;20034;-76
2023/02/15 03:00:12;;;;;;;0.60;0.60;;;;;;;2.88;75.54;101861.38;5044035;28;20108;-76
2023/02/15 03:02:42;;;;;;;0.50;0.50;;;;;;;2.87;75.69;101859.63;5047744;28;20029;-76
2023/02/15 03:05:14;;;;;;;0.50;0.50;;;;;;;2.91;75.62;101866.66;5047766;28;20017;-76
2023/02/15 03:07:41;;;;;;;0.50;0.50;;;;;;;2.83;75.90;101862.84;5045136;28;20053;-77
2023/02/15 03:10:08;;;;;;;0.73;0.73;;;;;;;2.80;75.85;101853.34;5043858;28;20032;-76
2023/02/15 03:12:39;;;;;;;0.70;0.70;;;;;;;2.87;76.05;101846.81;5045058;28;20022;-76
2023/02/15 03:15:10;;;;;;;0.60;0.60;;;;;;;2.88;75.99;101846.00;5060495;28;20032;-76
2023/02/15 03:17:41;;;;;;;3.05;2.13;;;;;;;2.88;75.76;101835.72;5060399;28;20021;-75
2023/02/15 03:20:34;;;;;;;0.52;0.52;;;;;;;2.83;75.68;101839.75;5045118;28;20113;-76
2023/02/15 03:23:09;;;;;;;1.10;1.10;;;;;;;2.82;75.86;101845.72;5043596;28;20061;-75
2023/02/15 03:25:39;;;;;;;2.08;1.98;;;;;;;2.76;75.85;101836.06;5045766;28;20390;-75
2023/02/15 03:28:23;;;;;;;0.82;0.82;;;;;;;2.75;75.95;101833.41;5048956;28;20312;-78
2023/02/15 03:30:53;;;;;;;1.13;1.13;;;;;;;2.71;76.07;101832.38;5049030;28;20088;-76
2023/02/15 03:33:21;;;;;;;0.60;0.60;;;;;;;2.77;76.19;101836.91;5064144;28;20033;-76
2023/02/15 03:35:56;;;;;;;0.60;0.60;;;;;;;2.78;75.98;101836.97;5049068;28;20094;-75
2023/02/15 03:38:36;;;;;;;0.60;0.60;;;;;;;2.77;76.16;101831.78;5064234;28;20037;-75
2023/02/15 03:41:10;;;;;;;0.50;0.50;;;;;;;2.71;76.01;101827.25;5048725;28;20041;-76
2023/02/15 03:43:38;;;;;;;1.30;1.30;;;;;;;2.73;75.86;101828.22;5048543;28;20029;-75
2023/02/15 03:46:13;;;;;;;8.20;2.45;;;;;;;2.77;75.85;101826.66;5048692;28;20021;-76
2023/02/15 03:48:47;;;;;;;0.50;0.50;;;;;;;2.72;76.06;101819.63;5048700;28;20017;-76
2023/02/15 03:51:33;;;;;;;0.50;0.50;;;;;;;2.70;76.11;101812.69;5063908;28;20025;-77
2023/02/15 03:54:02;;;;;;;0.60;0.60;;;;;;;2.67;75.96;101810.84;5047218;28;20377;-76
2023/02/15 03:56:28;;;;;;;0.50;0.50;;;;;;;2.64;76.07;101804.69;5048217;28;20492;-76
2023/02/15 04:01:58;;;;;;;2.03;1.92;;;;;;;2.75;76.15;101800.06;5048560;28;20029;-76
2023/02/15 04:04:34;;;;;;;0.60;0.60;;;;;;;2.74;76.05;101809.44;5048403;28;20119;-76
2023/02/15 04:07:01;;;;;;;0.60;0.60;;;;;;;2.71;76.31;101804.19;5048296;28;20026;-76
2023/02/15 04:12:11;;;;;;;0.82;0.82;;;;;;;2.71;76.08;101815.31;5050040;28;20127;-76
2023/02/15 04:17:21;;;;;;;1.83;1.70;;;;;;;2.60;76.26;101796.00;5052961;28;20028;-76
2023/02/15 04:25:14;;;;;;;0.57;0.57;;;;;;;2.57;76.24;101798.41;5052447;28;20033;-78
2023/02/15 04:27:42;;;;;;;0.65;0.65;;;;;;;2.60;76.38;101793.41;5053161;28;20026;-78
2023/02/15 04:30:09;;;;;;;0.60;0.60;;;;;;;2.56;76.60;101787.25;5046471;28;20092;-76
2023/02/15 04:32:35;;;;;;;0.50;0.50;;;;;;;2.52;76.56;101785.38;5046576;28;20428;-75
2023/02/15 04:35:01;;;;;;;0.60;0.60;;;;;;;2.54;76.62;101788.00;5047741;28;20029;-76
2023/02/15 04:37:26;;;;;;;0.68;0.68;;;;;;;2.51;76.85;101782.75;5046804;28;20044;-77
2023/02/15 04:39:52;;;;;;;0.50;0.50;;;;;;;2.55;76.88;101785.50;5047341;28;20056;-77
2023/02/15 04:42:17;;;;;;;0.50;0.50;;;;;;;2.55;76.80;101780.38;5047523;28;20032;-77
2023/02/15 04:44:43;;;;;;;0.68;0.68;;;;;;;2.63;76.85;101785.88;5047589;28;20489;-76
2023/02/15 04:47:08;;;;;;;2.38;2.25;;;;;;;2.55;76.24;101764.13;5047429;28;20030;-76
2023/02/15 04:49:34;;;;;;;0.55;0.55;;;;;;;2.62;76.66;101778.97;5046241;28;20025;-76
2023/02/15 04:51:59;;;;;;;0.52;0.52;;;;;;;2.61;76.75;101777.22;5047322;28;20017;-77
2023/02/15 04:54:25;;;;;;;17.38;7.20;;;;;;;2.52;76.82;101769.09;5047322;28;20029;-77
2023/02/15 04:56:50;;;;;;;0.60;0.60;;;;;;;2.55;76.92;101769.25;5047089;28;20044;-77
2023/02/15 04:59:16;;;;;;;0.60;0.60;;;;;;;2.57;76.77;101778.75;5047410;28;20077;-76
2023/02/15 05:01:41;;;;;;;1.33;1.33;;;;;;;2.54;76.91;101773.47;5047232;28;20029;-77
2023/02/15 05:04:07;;;;;;;0.70;0.70;;;;;;;2.54;76.97;101770.06;5045732;28;20021;-76
2023/02/15 05:06:32;;;;;;;0.70;0.70;;;;;;;2.54;76.88;101759.81;5062367;28;20026;-76
2023/02/15 05:08:59;;;;;;;0.60;0.60;;;;;;;2.44;77.19;101753.38;5047012;28;20025;-76
2023/02/15 05:11:25;;;;;;;0.60;0.60;;;;;;;2.46;77.40;101749.19;5046855;28;20032;-77
2023/02/15 05:13:50;;;;;;;0.85;0.82;;;;;;;2.43;77.45;101742.22;5047009;28;20075;-76
2023/02/15 05:16:16;;;;;;;0.80;0.80;;;;;;;2.42;77.53;101749.84;5046927;28;20029;-76
2023/02/15 05:18:41;;;;;;;0.60;0.60;;;;;;;2.51;77.55;101747.69;5046845;28;20105;-76
2023/02/15 05:21:07;;;;;;;0.60;0.60;;;;;;;2.41;77.43;101727.59;5045427;28;20033;-76
2023/02/15 05:23:32;;;;;;;2.88;2.78;;;;;;;2.50;77.27;101738.28;5061265;28;20036;-78
2023/02/15 05:28:41;;;;;;;0.60;0.60;;;;;;;2.47;77.32;101746.72;5046680;28;20078;-76
2023/02/15 05:31:18;;;;;;;0.60;0.60;;;;;;;2.45;77.76;101747.41;5062106;28;20029;-77
2023/02/15 05:33:44;;;;;;;0.55;0.55;;;;;;;2.42;77.51;101739.59;5046825;28;20481;-75
2023/02/15 05:36:10;;;;;;;2.63;1.92;;;;;;;2.34;77.53;101736.66;5046179;28;20036;-76
2023/02/15 05:38:38;;;;;;;5.97;3.85;;;;;;;2.39;77.98;101749.69;5044868;28;20026;-76
2023/02/15 05:41:05;;;;;;;0.60;0.60;;;;;;;2.32;77.77;101738.28;5045965;28;20053;-76
2023/02/15 05:43:32;;;;;;;0.65;0.65;;;;;;;2.39;77.83;101745.47;5044925;28;20116;-76
2023/02/15 05:45:57;;;;;;;3.88;3.55;;;;;;;2.40;77.96;101741.19;5046019;28;20025;-76
2023/02/15 05:48:25;;;;;;;0.50;0.50;;;;;;;2.31;77.96;101728.84;5045764;28;20032;-76
2023/02/15 05:50:58;;;;;;;0.55;0.55;;;;;;;2.38;77.91;101732.56;5045866;28;20017;-77
2023/02/15 05:53:23;;;;;;;0.95;0.95;;;;;;;2.31;77.94;101734.84;5060995;28;20020;-76
2023/02/15 05:55:49;;;;;;;2.45;2.25;;;;;;;2.34;78.04;101735.00;5060763;28;20017;-76
2023/02/15 05:58:14;;;;;;;0.70;0.70;;;;;;;2.35;78.02;101734.19;5045795;28;20037;-76
2023/02/15 06:00:39;;;;;;;0.60;0.60;;;;;;;2.32;77.66;101722.88;5045776;28;20081;-77
2023/02/15 06:03:05;;;;;;;0.55;0.55;;;;;;;2.37;77.95;101734.25;5047185;28;20037;-76
2023/02/15 06:05:30;;;;;;;0.80;0.80;;;;;;;2.31;77.92;101727.16;5056316;28;20031;-76
2023/02/15 06:07:56;;;;;;;1.77;1.73;;;;;;;2.38;77.82;101727.44;5056669;28;20026;-76
2023/02/15 06:10:21;;;;;;;2.60;2.47;;;;;;;2.31;77.53;101721.16;5053536;28;20056;-76
2023/02/15 06:12:46;;;;;;;0.60;0.60;;;;;;;2.29;77.76;101727.88;5046094;28;20025;-76
2023/02/15 06:15:13;;;;;;;0.77;0.77;;;;;;;2.23;77.91;101719.13;5045858;28;20025;-76
2023/02/15 06:17:41;;;;;;;0.70;0.70;;;;;;;2.21;77.96;101717.28;5046006;28;20036;-76
2023/02/15 06:20:08;;;;;;;0.52;0.52;;;;;;;2.22;78.00;101717.34;5045784;28;20058;-78
2023/02/15 06:22:33;;;;;;;0.63;0.63;;;;;;;2.21;78.18;101718.16;5060906;28;20052;-79
2023/02/15 06:24:59;;;;;;;0.55;0.55;;;;;;;2.22;78.01;101704.53;5045437;28;20033;-77
2023/02/15 06:27:24;;;;;;;0.50;0.50;;;;;;;2.14;78.07;101700.72;5043911;28;20044;-77
2023/02/15 06:29:50;;;;;;;0.70;0.70;;;;;;;2.16;78.31;101703.34;5045624;28;20343;-76
2023/02/15 06:32:15;;;;;;;0.60;0.60;;;;;;;2.20;78.22;101708.72;5045758;28;20382;-76
2023/02/15 06:34:40;;;;;;;0.77;0.77;;;;;;;2.18;78.14;101709.44;5045311;28;20021;-76
2023/02/15 06:37:07;;;;;;;0.50;0.50;;;;;;;2.17;78.42;101715.38;5045164;28;20021;-76
2023/02/15 06:39:33;;;;;;;0.60;0.60;;;;;;;2.20;78.19;101711.28;5044268;28;20037;-73
2023/02/15 06:41:59;;;;;;;0.63;0.63;;;;;;;2.19;78.26;101708.66;5044977;28;20025;-77
2023/02/15 06:44:24;;;;;;;0.70;0.70;;;;;;;2.17;78.58;101713.66;5043925;28;20029;-76
2023/02/15 06:46:49;;;;;;;0.50;0.50;;;;;;;2.15;78.87;101705.06;5045341;28;20056;-72
2023/02/15 06:49:15;;;;;;;0.75;0.75;;;;;;;2.19;78.51;101708.66;5045243;28;20386;-73
2023/02/15 06:51:40;;;;;;;0.60;0.60;;;;;;;2.21;77.91;101701.88;5060656;28;20017;-76
2023/02/15 06:54:06;;;;;;;0.47;0.47;;;;;;;2.10;78.08;101701.38;5045311;28;20080;-75
2023/02/15 06:56:31;;;;;;;0.73;0.73;;;;;;;2.09;78.30;101703.06;5044923;28;20039;-76
2023/02/15 06:58:57;;;;;;;0.98;0.98;;;;;;;2.08;78.38;101697.88;5044857;28;20029;-76
2023/02/15 07:01:22;;;;;;;0.60;0.60;;;;;;;2.03;78.64;101707.91;5045026;28;20017;-76
2023/02/15 07:03:47;;;;;;;0.55;0.55;;;;;;;1.97;78.94;101700.81;5043544;28;20120;-74
2023/02/15 07:06:13;;;;;;;1.45;1.45;;;;;;;2.03;79.15;101702.78;5045199;28;20029;-75
2023/02/15 07:08:39;;;;;;;0.70;0.70;;;;;;;2.06;78.78;101697.78;5060440;28;20036;-75
2023/02/15 07:13:49;;;;;;;0.60;0.60;;;;;;;2.06;79.04;101699.50;5044755;28;20052;-74
2023/02/15 07:16:15;;;;;;;0.50;0.50;;;;;;;2.03;78.47;101694.22;5044363;28;20033;-75
2023/02/15 07:18:40;;;;;;;0.70;0.70;;;;;;;2.02;78.94;101702.69;5044867;28;20025;-76
2023/02/15 07:21:09;;;;;;;4.63;2.60;;;;;;;1.99;79.30;101700.88;5045083;28;20018;-74
2023/02/15 07:23:36;;;;;;;0.63;0.63;;;;;;;1.98;79.55;101696.56;5044789;28;20108;-74
2023/02/15 07:26:02;;;;;;;1.30;1.30;;;;;;;2.00;79.63;101701.78;5044775;28;20092;-74
2023/02/15 07:28:28;;;;;;;0.50;0.50;;;;;;;2.02;79.66;101700.13;5043646;28;20045;-75
2023/02/15 07:30:53;;;;;;;0.50;0.50;;;;;;;2.02;79.64;101695.91;5044994;28;20053;-75
2023/02/15 07:33:22;;;;;;;0.70;0.70;;;;;;;2.06;79.69;101705.47;5044927;28;20422;-76
2023/02/15 07:35:55;;;;;;;0.60;0.60;;;;;;;2.04;79.49;101688.28;5044847;28;20034;-75
2023/02/15 07:38:21;;;;;;;0.50;0.50;;;;;;;2.08;79.69;101698.75;5060286;28;20036;-73
2023/02/15 07:40:46;;;;;;;0.60;0.60;;;;;;;2.15;79.64;101694.81;5044756;28;20098;-73
2023/02/15 07:43:12;;;;;;;0.60;0.60;;;;;;;2.16;79.59;101687.97;5043405;28;20049;-74
2023/02/15 07:45:38;;;;;;;0.85;0.82;;;;;;;2.16;79.67;101690.53;5059924;28;20102;-73
2023/02/15 07:48:04;;;;;;;0.60;0.60;;;;;;;2.20;79.37;101690.78;5044733;28;20033;-74
2023/02/15 07:50:31;;;;;;;0.80;0.80;;;;;;;2.17;79.87;101689.75;5043487;28;20021;-73
2023/02/15 07:52:56;;;;;;;0.60;0.60;;;;;;;2.25;79.84;101695.22;5044788;28;20018;-73
2023/02/15 07:55:21;;;;;;;0.82;0.82;;;;;;;2.23;79.46;101693.50;5044500;28;20504;-73
2023/02/15 07:57:49;;;;;;;0.60;0.60;;;;;;;2.24;78.94;101689.22;5044445;28;20084;-72
2023/02/15 08:00:16;;;;;;;0.65;0.65;;;;;;;2.16;78.88;101683.75;5059958;28;20032;-74
2023/02/15 08:02:48;;;;;;;0.65;0.65;;;;;;;2.20;78.86;101682.22;5060004;28;20032;-73
2023/02/15 08:05:14;;;;;;;0.70;0.70;;;;;;;2.19;79.25;101670.22;5044721;28;20040;-73
2023/02/15 08:07:39;;;;;;;0.52;0.52;;;;;;;2.24;79.12;101671.28;5044573;28;20029;-74
2023/02/15 08:10:05;;;;;;;0.60;0.60;;;;;;;2.27;79.30;101675.69;5044495;28;20021;-73
2023/02/15 08:12:32;;;;;;;2.53;1.73;;;;;;;2.38;79.01;101671.06;5046220;28;20029;-73
2023/02/15 08:14:58;;;;;;;1.65;1.63;;;;;;;2.34;78.85;101673.47;5063496;28;20022;-74
2023/02/15 08:17:23;;;;;;;0.63;0.63;;;;;;;2.33;78.74;101668.28;5046871;28;20041;-74
2023/02/15 08:19:49;;;;;;;0.50;0.50;;;;;;;2.25;78.86;101650.00;5048009;28;20040;-74
2023/02/15 08:22:14;;;;;;;1.35;1.35;;;;;;;2.20;78.69;101639.53;5047948;28;20022;-74
2023/02/15 08:24:41;;;;;;;0.60;0.60;;;;;;;2.26;78.58;101648.28;5047972;28;20092;-74
2023/02/15 08:27:09;;;;;;;0.60;0.60;;;;;;;2.34;78.83;101649.53;5047732;28;20074;-74
2023/02/15 08:29:37;;;;;;;0.70;0.70;;;;;;;2.46;78.64;101650.06;5047787;28;20077;-73
2023/02/15 08:32:08;;;;;;;1.15;1.15;;;;;;;2.46;78.09;101647.50;5046758;28;20021;-73
2023/02/15 08:34:37;;;;;;;0.70;0.70;;;;;;;2.46;78.15;101646.66;5046715;28;20029;-74
2023/02/15 08:37:03;;;;;;;1.08;1.08;;;;;;;2.41;77.95;101641.28;5061985;28;20049;-74
2023/02/15 08:39:28;;;;;;;0.55;0.55;;;;;;;2.37;78.52;101636.84;5046919;28;20089;-74
2023/02/15 08:41:54;;;;;;;0.80;0.80;;;;;;;2.43;78.32;101628.56;5046866;28;20029;-73
2023/02/15 08:44:20;;;;;;;0.50;0.50;;;;;;;2.44;78.41;101626.09;5047268;28;20033;-74
2023/02/15 08:46:47;;;;;;;0.57;0.57;;;;;;;2.51;78.29;101623.78;5045638;28;20025;-74
2023/02/15 08:49:22;;;;;;;0.60;0.60;;;;;;;2.48;78.27;101624.50;5047391;28;20021;-73
2023/02/15 08:51:49;;;;;;;0.60;0.60;;;;;;;2.46;78.15;101621.88;5062153;28;20037;-74
2023/02/15 08:54:17;;;;;;;1.35;1.25;;;;;;;2.46;78.12;101608.22;5062034;28;20028;-74
2023/02/15 08:56:43;;;;;;;0.50;0.50;;;;;;;2.43;78.17;101606.38;5047149;28;20025;-74
2023/02/15 08:59:18;;;;;;;0.75;0.75;;;;;;;2.41;77.88;101607.13;5045468;28;20040;-74
2023/02/15 09:01:44;;;;;;;0.55;0.55;;;;;;;2.37;77.82;101602.63;5046517;28;20029;-73
2023/02/15 09:04:10;;;;;;;14.02;5.25;;;;;;;2.28;78.20;101603.13;5047210;28;20026;-73
2023/02/15 09:06:37;;;;;;;0.60;0.60;;;;;;;2.29;78.55;101602.31;5062719;28;20022;-72
2023/02/15 09:09:06;;;;;;;0.63;0.63;;;;;;;2.31;78.12;101608.38;5046760;28;20097;-73
2023/02/15 09:11:41;;;;;;;7.43;2.30;;;;;;;2.26;78.21;101600.50;5061542;28;20025;-73
2023/02/15 09:14:15;;;;;;;0.60;0.60;;;;;;;2.27;78.31;101594.53;5046208;28;20033;-73
2023/02/15 09:16:48;;;;;;;0.50;0.50;;;;;;;2.22;78.17;101594.34;5061655;28;20021;-73
2023/02/15 09:19:14;;;;;;;0.60;0.60;;;;;;;2.33;78.12;101589.69;5046284;28;20021;-73
2023/02/15 09:21:40;;;;;;;1.15;1.15;;;;;;;2.26;78.56;101595.38;5046126;28;20017;-73
2023/02/15 09:24:08;;;;;;;1.58;1.58;;;;;;;2.34;78.27;101590.56;5045727;28;20033;-74
2023/02/15 09:26:36;;;;;;;0.50;0.50;;;;;;;2.26;78.38;101589.34;5045953;28;20056;-74
2023/02/15 09:29:03;;;;;;;0.60;0.60;;;;;;;2.38;78.90;101587.31;5046261;28;20389;-73
2023/02/15 09:31:43;;;;;;;0.52;0.52;;;;;;;2.35;78.42;101579.50;5044745;28;20049;-74
2023/02/15 09:34:10;;;;;;;0.60;0.60;;;;;;;2.50;78.69;101591.25;5061078;28;20028;-73
2023/02/15 09:36:38;;;;;;;0.93;0.93;;;;;;;2.55;78.16;101577.84;5046012;28;20029;-73
2023/02/15 09:39:10;;;;;;;0.60;0.60;;;;;;;2.53;78.05;101583.69;5045841;28;20054;-73
2023/02/15 09:41:57;;;;;;;0.70;0.70;;;;;;;2.51;78.25;101578.50;5045866;28;20401;-73
2023/02/15 09:45:00;;;;;;;0.60;0.60;;;;;;;2.47;78.25;101576.63;5061212;28;20026;-74
2023/02/15 09:48:03;;;;;;;0.70;0.70;;;;;;;2.44;78.12;101567.13;5045950;28;20063;-73
2023/02/15 09:50:50;;;;;;;0.65;0.65;;;;;;;2.48;78.06;101569.00;5045632;28;20056;-73
2023/02/15 09:53:31;;;;;;;1.88;1.80;;;;;;;2.45;78.06;101563.75;5045656;28;20041;-73
2023/02/15 09:56:18;;;;;;;0.60;0.60;;;;;;;2.47;77.90;101561.25;5060504;28;20030;-73
2023/02/15 09:59:01;;;;;;;0.60;0.60;;;;;;;2.41;77.71;101558.41;5044393;28;20029;-75
2023/02/15 10:01:39;;;;;;;0.57;0.57;;;;;;;2.32;78.07;101557.19;5045483;28;20021;-74
2023/02/15 10:04:23;;;;;;;2.75;2.60;;;;;;;2.27;78.00;101558.66;5045505;28;20032;-73
2023/02/15 10:07:01;;;;;;;1.08;1.08;;;;;;;2.18;78.43;101564.28;5060906;28;20052;-74
2023/02/15 10:09:45;;;;;;;0.60;0.60;;;;;;;2.16;78.57;101560.75;5060636;28;20028;-74
2023/02/15 10:12:27;;;;;;;0.57;0.57;;;;;;;2.07;78.70;101563.78;5045188;28;20025;-73
2023/02/15 10:15:24;;;;;;;0.52;0.52;;;;;;;2.01;79.20;101560.94;5045442;28;20032;-76
2023/02/15 10:18:20;;;;;;;2.15;2.05;;;;;;;2.04;79.31;101553.41;5045824;28;20033;-75
2023/02/15 10:20:55;;;;;;;1.85;1.75;;;;;;;2.06;79.36;101550.91;5061025;28;20025;-74
2023/02/15 10:23:33;;;;;;;0.85;0.85;;;;;;;2.07;79.76;101550.09;5045544;28;20021;-75
2023/02/15 10:26:18;;;;;;;0.60;0.60;;;;;;;2.09;79.70;101544.22;5060692;28;20091;-75
2023/02/15 10:28:51;;;;;;;0.70;0.70;;;;;;;2.10;79.87;101545.09;5045699;28;20051;-73
2023/02/15 10:31:43;;;;;;;0.60;0.60;;;;;;;2.26;79.44;101544.09;5045602;28;20032;-74
2023/02/15 10:34:18;;;;;;;0.60;0.60;;;;;;;2.23;79.34;101541.41;5044891;28;20025;-74
2023/02/15 10:36:53;;;;;;;0.50;0.50;;;;;;;2.22;79.51;101545.66;5045714;28;20040;-73
2023/02/15 10:39:18;;;;;;;1.83;1.73;;;;;;;2.23;79.39;101538.84;5060601;28;20116;-73
2023/02/15 10:42:02;;;;;;;0.82;0.82;;;;;;;2.25;79.49;101533.78;5045351;28;20025;-74
2023/02/15 10:44:50;;;;;;;0.60;0.60;;;;;;;2.34;79.63;101537.66;5045339;28;20127;-73
2023/02/15 10:47:43;;;;;;;1.33;1.33;;;;;;;2.42;79.38;101540.53;5024512;28;20060;-73
2023/02/15 10:50:41;;;;;;;0.50;0.50;;;;;;;2.45;79.42;101537.22;5060753;28;20033;-73
2023/02/15 10:53:18;;;;;;;2.95;2.78;;;;;;;2.46;79.22;101529.59;5024561;28;20037;-73
2023/02/15 10:55:55;;;;;;;1.25;1.25;;;;;;;2.46;78.74;101529.59;5045252;28;20049;-73
2023/02/15 10:58:39;;;;;;;1.25;1.25;;;;;;;2.44;79.21;101533.81;5045213;28;20366;-74
2023/02/15 11:01:23;;;;;;;0.60;0.60;;;;;;;2.48;79.13;101527.09;5060732;28;20029;-73
2023/02/15 11:03:51;;;;;;;2.67;2.58;;;;;;;2.54;79.02;101521.38;5045205;28;20086;-73
2023/02/15 11:06:20;;;;;;;0.60;0.60;;;;;;;2.59;79.09;101525.00;5045172;28;20033;-74
2023/02/15 11:08:53;;;;;;;0.50;0.50;;;;;;;2.56;79.18;101525.75;5045233;28;20021;-74
2023/02/15 11:11:24;;;;;;;3.85;3.55;;;;;;;2.59;79.11;101515.63;5060289;28;20088;-73
2023/02/15 11:13:56;;;;;;;0.50;0.50;;;;;;;2.65;78.96;101514.13;5045051;28;20035;-73
2023/02/15 11:16:28;;;;;;;0.52;0.52;;;;;;;2.77;79.21;101526.59;5045089;28;20033;-73
2023/02/15 11:19:06;;;;;;;1.08;1.08;;;;;;;2.77;78.77;101516.31;5045047;28;20029;-73
2023/02/15 11:21:45;;;;;;;0.50;0.50;;;;;;;2.74;78.99;101514.53;5045029;28;20081;-74
2023/02/15 11:24:16;;;;;;;0.60;0.60;;;;;;;2.82;78.81;101517.41;5044968;28;20029;-73
2023/02/15 11:27:02;;;;;;;0.70;0.70;;;;;;;2.79;78.56;101514.72;5045173;28;20021;-73
2023/02/15 11:30:00;;;;;;;0.60;0.60;;;;;;;2.78;78.90;101515.53;5045102;28;20036;-74
2023/02/15 11:32:33;;;;;;;0.52;0.52;;;;;;;2.76;78.92;101500.09;5045211;28;20034;-75
2023/02/15 11:35:10;;;;;;;0.70;0.70;;;;;;;2.87;78.95;101499.63;5044830;28;20029;-74
2023/02/15 11:37:43;;;;;;;0.60;0.60;;;;;;;2.83;78.89;101501.19;5044921;28;20025;-73
2023/02/15 11:40:32;;;;;;;0.50;0.50;;;;;;;2.91;79.09;101496.38;5059828;28;20113;-74
2023/02/15 11:43:39;;;;;;;0.50;0.50;;;;;;;2.96;78.75;101494.88;5044746;28;20037;-74
2023/02/15 11:46:07;;;;;;;3.10;2.90;;;;;;;3.01;78.59;101495.06;4985186;28;20041;-75
2023/02/15 11:48:33;;;;;;;0.65;0.65;;;;;;;3.01;78.62;101497.63;4987416;28;20034;-73
2023/02/15 11:51:02;;;;;;;0.60;0.60;;;;;;;3.06;78.76;101504.72;4987372;28;20222;-73
2023/02/15 11:53:31;;;;;;;4.15;3.28;;;;;;;3.00;78.86;101501.00;4971071;28;20479;-73
2023/02/15 11:55:57;;;;;;;0.60;0.60;;;;;;;2.98;78.79;101488.13;4987089;28;20037;-74
2023/02/15 11:58:37;;;;;;;0.57;0.57;;;;;;;3.06;78.82;101491.88;4987099;28;20415;-73
2023/02/15 12:01:19;;;;;;;1.15;1.15;;;;;;;3.04;78.79;101492.63;4987127;28;20050;-73
2023/02/15 12:03:55;;;;;;;0.90;0.90;;;;;;;3.06;78.77;101483.31;4987037;28;20035;-73
2023/02/15 12:06:32;;;;;;;0.73;0.73;;;;;;;3.07;78.86;101482.47;4971294;28;20065;-73
2023/02/15 12:09:14;;;;;;;0.50;0.50;;;;;;;3.02;78.92;101476.31;4971573;28;20027;-73
2023/02/15 12:11:40;;;;;;;0.70;0.70;;;;;;;2.99;79.08;101471.06;4986957;28;20081;-73